Time;durP1;ratioP1;P1;durP2;ratioP2;P2;SDS_P1;SDS_P2;PMS_P1;PMS_P2;Temp;Humidity;BMP_temperature;BMP_pressure;BME280_temperature;BME280_humidity;BME280_pressure;Samples;Min_cycle;Max_cycle;Signal;HPM_P1;HPM_P2
2022/07/08 00:01:57;;;;;;;13.45;4.18;;;13.60;77.40;;;;;;5000904;28;20033;-72
2022/07/08 00:04:23;;;;;;;11.10;4.25;;;13.60;77.50;;;;;;5000737;28;20115;-72
2022/07/08 00:06:49;;;;;;;10.10;3.63;;;13.60;77.50;;;;;;5000315;28;20053;-72
2022/07/08 00:09:15;;;;;;;11.57;3.70;;;13.50;77.70;;;;;;5010051;28;20046;-73
2022/07/08 00:11:41;;;;;;;12.10;4.18;;;13.60;77.80;;;;;;4998014;28;20049;-73
2022/07/08 00:14:08;;;;;;;9.77;3.78;;;13.40;77.70;;;;;;5003811;28;20142;-73
2022/07/08 00:16:35;;;;;;;13.55;4.75;;;13.40;77.80;;;;;;4996677;28;20122;-72
2022/07/08 00:19:01;;;;;;;11.77;4.30;;;13.50;77.90;;;;;;5002552;28;20541;-72
2022/07/08 00:21:26;;;;;;;10.23;4.07;;;13.40;78.00;;;;;;4999470;28;20133;-72
2022/07/08 00:23:52;;;;;;;12.52;4.70;;;13.40;78.00;;;;;;5008627;28;20125;-73
2022/07/08 00:26:18;;;;;;;10.02;4.38;;;13.40;78.00;;;;;;5007989;28;20107;-73
2022/07/08 00:28:44;;;;;;;11.75;4.15;;;13.40;77.90;;;;;;4996527;28;20394;-72
2022/07/08 00:31:10;;;;;;;11.65;4.00;;;13.40;77.90;;;;;;5004659;28;20050;-73
2022/07/08 00:33:36;;;;;;;10.57;4.43;;;13.40;77.90;;;;;;5010989;28;20044;-73
2022/07/08 00:36:01;;;;;;;14.27;4.72;;;13.30;78.10;;;;;;5004592;28;20045;-74
2022/07/08 00:38:27;;;;;;;12.82;4.80;;;13.20;78.30;;;;;;5010255;28;20057;-73
2022/07/08 00:40:52;;;;;;;11.63;4.05;;;13.20;78.30;;;;;;5007255;28;20037;-72
2022/07/08 00:43:36;;;;;;;10.50;4.35;;;13.10;78.40;;;;;;5006680;28;20069;-72
2022/07/08 00:46:02;;;;;;;13.02;4.60;;;13.10;78.60;;;;;;5006521;28;20100;-72
2022/07/08 00:48:29;;;;;;;11.43;4.25;;;13.10;78.50;;;;;;5007956;28;20045;-73
2022/07/08 00:50:55;;;;;;;11.23;4.50;;;13.10;78.60;;;;;;5005224;28;20146;-73
2022/07/08 00:53:22;;;;;;;10.68;5.00;;;13.10;78.70;;;;;;5008701;28;20042;-73
2022/07/08 00:55:48;;;;;;;14.60;5.82;;;13.00;79.00;;;;;;5002577;28;20575;-73
2022/07/08 00:58:14;;;;;;;12.85;6.07;;;13.00;79.10;;;;;;5003425;28;20490;-73
2022/07/08 01:00:40;;;;;;;16.17;5.25;;;12.90;79.40;;;;;;5011711;28;20042;-73
2022/07/08 01:03:06;;;;;;;12.93;5.22;;;12.90;79.70;;;;;;5003475;28;20038;-72
2022/07/08 01:05:31;;;;;;;16.35;6.50;;;12.90;79.70;;;;;;5000465;28;20521;-73
2022/07/08 01:07:57;;;;;;;13.32;5.80;;;12.90;79.70;;;;;;5001036;28;20062;-72
2022/07/08 01:10:23;;;;;;;15.82;6.90;;;13.00;79.90;;;;;;4997138;28;20050;-72
2022/07/08 01:12:49;;;;;;;13.93;6.18;;;12.90;80.00;;;;;;5011909;28;20076;-73
2022/07/08 01:15:16;;;;;;;15.80;7.13;;;12.80;80.10;;;;;;4996260;28;20042;-72
2022/07/08 01:17:45;;;;;;;15.35;6.80;;;12.80;80.60;;;;;;4999935;28;20050;-73
2022/07/08 01:20:12;;;;;;;12.07;7.03;;;12.80;80.60;;;;;;5001866;28;20073;-73
2022/07/08 01:22:38;;;;;;;14.95;6.95;;;12.80;80.60;;;;;;5011463;28;20045;-73
2022/07/08 01:25:07;;;;;;;17.35;7.35;;;12.80;80.40;;;;;;4996699;28;20034;-72
2022/07/08 01:27:32;;;;;;;11.75;6.07;;;12.70;80.30;;;;;;5002605;28;20038;-72
2022/07/08 01:29:58;;;;;;;17.60;7.30;;;12.70;80.40;;;;;;5004831;28;20042;-72
2022/07/08 01:32:35;;;;;;;12.35;6.70;;;12.70;80.40;;;;;;4995541;28;20026;-72
2022/07/08 01:35:01;;;;;;;16.00;7.25;;;12.70;80.30;;;;;;5005014;28;20045;-72
2022/07/08 01:37:26;;;;;;;14.65;6.75;;;12.70;80.30;;;;;;5009610;28;20040;-73
2022/07/08 01:39:52;;;;;;;17.85;7.18;;;12.70;80.30;;;;;;5000564;28;20482;-72
2022/07/08 01:42:18;;;;;;;13.60;7.57;;;12.60;80.30;;;;;;5001880;28;20508;-73
2022/07/08 01:44:44;;;;;;;13.32;6.80;;;12.60;80.60;;;;;;5010976;28;20462;-73
2022/07/08 01:47:09;;;;;;;14.05;7.22;;;12.60;80.90;;;;;;5008852;28;20038;-73
2022/07/08 01:49:35;;;;;;;18.65;7.85;;;12.60;81.20;;;;;;5012783;28;20041;-72
2022/07/08 01:52:01;;;;;;;14.35;8.07;;;12.50;81.20;;;;;;4991935;28;20441;-72
2022/07/08 01:54:27;;;;;;;20.33;8.45;;;12.50;81.30;;;;;;4996237;28;20241;-71
2022/07/08 01:57:13;;;;;;;15.60;7.50;;;12.50;81.30;;;;;;5004390;28;20124;-71
2022/07/08 01:59:38;;;;;;;17.92;8.07;;;12.50;81.50;;;;;;5005235;28;20430;-71
2022/07/08 02:02:04;;;;;;;14.93;7.60;;;12.50;81.40;;;;;;5002438;28;20037;-72
2022/07/08 02:04:29;;;;;;;16.35;7.22;;;12.60;81.20;;;;;;5014970;28;20038;-74
2022/07/08 02:06:55;;;;;;;14.50;7.63;;;12.50;81.30;;;;;;5007455;28;20037;-73
2022/07/08 02:09:21;;;;;;;13.98;7.55;;;12.60;81.20;;;;;;5007885;28;20489;-73
2022/07/08 02:14:32;;;;;;;14.95;6.65;;;12.50;81.10;;;;;;4999324;28;20093;-73
2022/07/08 02:16:58;;;;;;;15.90;7.35;;;12.50;81.10;;;;;;4999868;28;20046;-73
2022/07/08 02:19:24;;;;;;;17.20;6.85;;;12.50;81.10;;;;;;5009973;28;20030;-73
2022/07/08 02:21:50;;;;;;;14.60;6.43;;;12.50;81.00;;;;;;4998218;28;20049;-73
2022/07/08 02:24:16;;;;;;;13.68;6.57;;;12.50;80.90;;;;;;5009075;28;20481;-73
2022/07/08 02:26:41;;;;;;;13.02;7.05;;;12.50;80.90;;;;;;5010702;28;20125;-72
2022/07/08 02:29:07;;;;;;;16.20;6.38;;;12.50;80.90;;;;;;5007622;28;20038;-72
2022/07/08 02:31:34;;;;;;;12.15;6.18;;;12.50;80.80;;;;;;4999955;28;20130;-73
2022/07/08 02:34:00;;;;;;;11.70;6.75;;;12.50;80.70;;;;;;5006042;28;20088;-72
2022/07/08 02:36:26;;;;;;;16.63;5.97;;;12.40;80.70;;;;;;5007976;28;20034;-72
2022/07/08 02:38:52;;;;;;;13.25;6.25;;;12.40;80.70;;;;;;5010073;28;20378;-72
2022/07/08 02:41:18;;;;;;;11.05;5.95;;;12.40;80.70;;;;;;5010069;28;20092;-72
2022/07/08 02:43:43;;;;;;;12.52;6.05;;;12.30;80.80;;;;;;4994856;28;20038;-72
2022/07/08 02:46:09;;;;;;;13.65;6.43;;;12.30;80.80;;;;;;5005086;28;20039;-73
2022/07/08 02:48:35;;;;;;;11.40;6.10;;;12.20;80.90;;;;;;5003957;28;20026;-72
2022/07/08 02:51:01;;;;;;;10.80;6.38;;;12.30;80.80;;;;;;4992047;28;20133;-73
2022/07/08 02:53:27;;;;;;;12.73;6.93;;;12.30;80.70;;;;;;5009686;28;20045;-72
2022/07/08 02:55:53;;;;;;;11.55;6.18;;;12.30;80.60;;;;;;5009820;28;20445;-73
2022/07/08 02:58:18;;;;;;;15.00;6.63;;;12.20;80.60;;;;;;4996088;28;20034;-72
2022/07/08 03:00:44;;;;;;;13.00;6.78;;;12.20;80.60;;;;;;5009280;28;20030;-72
2022/07/08 03:03:10;;;;;;;11.50;5.53;;;12.10;80.70;;;;;;4992829;28;20034;-72
2022/07/08 03:05:35;;;;;;;13.73;7.60;;;12.10;80.70;;;;;;5009646;28;20042;-72
2022/07/08 03:08:01;;;;;;;14.50;7.45;;;12.10;80.70;;;;;;5005516;28;20056;-73
2022/07/08 03:10:27;;;;;;;15.18;7.32;;;12.10;80.90;;;;;;5007369;28;20078;-72
2022/07/08 03:12:52;;;;;;;15.35;6.53;;;12.10;81.00;;;;;;4991352;28;20073;-72
2022/07/08 03:15:18;;;;;;;15.32;6.93;;;12.00;80.70;;;;;;5006542;28;20414;-72
2022/07/08 03:17:44;;;;;;;12.77;6.32;;;12.00;81.00;;;;;;4997320;28;20042;-72
2022/07/08 03:20:10;;;;;;;12.13;6.60;;;12.00;81.20;;;;;;4991495;28;20042;-72
2022/07/08 03:22:35;;;;;;;13.20;6.68;;;12.00;81.30;;;;;;5010654;28;20445;-72
2022/07/08 03:25:01;;;;;;;14.25;6.95;;;12.00;81.20;;;;;;5006753;28;20034;-74
2022/07/08 03:27:27;;;;;;;14.43;7.07;;;11.90;81.00;;;;;;5008618;28;20541;-72
2022/07/08 03:29:53;;;;;;;15.18;7.45;;;11.90;81.20;;;;;;5010638;28;20053;-72
2022/07/08 03:32:18;;;;;;;12.80;6.18;;;12.00;81.20;;;;;;4993429;28;20129;-72
2022/07/08 03:34:44;;;;;;;17.88;7.95;;;11.90;81.20;;;;;;4995240;28;20455;-72
2022/07/08 03:37:09;;;;;;;16.10;7.65;;;11.90;81.20;;;;;;5003727;28;20041;-72
2022/07/08 03:39:35;;;;;;;17.65;6.88;;;11.90;81.20;;;;;;5002367;28;20058;-72
2022/07/08 03:42:02;;;;;;;17.25;7.85;;;11.90;81.20;;;;;;5001978;28;20478;-73
2022/07/08 03:44:27;;;;;;;13.00;6.65;;;11.90;81.40;;;;;;5010817;28;20057;-72
2022/07/08 03:46:53;;;;;;;13.45;6.70;;;11.80;81.50;;;;;;5006673;28;20557;-73
2022/07/08 03:49:18;;;;;;;15.95;6.53;;;11.80;81.40;;;;;;5005221;28;20041;-72
2022/07/08 03:51:45;;;;;;;12.02;6.97;;;11.80;81.30;;;;;;5001400;28;20037;-72
2022/07/08 03:54:10;;;;;;;18.35;7.03;;;11.80;81.50;;;;;;4997623;28;20921;-72
2022/07/08 03:56:36;;;;;;;17.58;8.00;;;11.90;81.40;;;;;;4989775;28;20509;-72
2022/07/08 03:59:02;;;;;;;15.10;7.13;;;11.90;81.50;;;;;;5007013;28;20042;-73
2022/07/08 04:01:28;;;;;;;13.00;6.65;;;11.90;81.50;;;;;;5001989;28;20046;-72
2022/07/08 04:03:53;;;;;;;16.27;7.15;;;12.00;81.50;;;;;;4991551;28;20038;-72
2022/07/08 04:06:19;;;;;;;16.88;7.68;;;12.00;81.60;;;;;;4998366;28;20114;-71
2022/07/08 04:08:45;;;;;;;19.20;8.35;;;12.00;81.70;;;;;;5007664;28;20121;-71
2022/07/08 04:11:11;;;;;;;14.00;7.63;;;12.10;81.50;;;;;;5008613;28;20046;-71
2022/07/08 04:13:40;;;;;;;15.90;7.80;;;12.10;81.40;;;;;;5010610;28;20029;-72
2022/07/08 04:16:10;;;;;;;12.10;6.65;;;12.10;81.40;;;;;;5000959;28;20092;-72
2022/07/08 04:18:37;;;;;;;15.15;7.10;;;12.10;81.20;;;;;;5009876;28;20528;-72
2022/07/08 04:21:02;;;;;;;14.20;7.35;;;12.20;81.40;;;;;;5001613;28;20034;-72
2022/07/08 04:23:28;;;;;;;17.27;7.75;;;12.20;81.30;;;;;;5008210;28;20497;-72
2022/07/08 04:25:54;;;;;;;16.05;8.43;;;12.30;81.20;;;;;;5009682;28;20045;-73
2022/07/08 04:28:19;;;;;;;12.07;6.13;;;12.30;81.20;;;;;;5009077;28;20132;-72
2022/07/08 04:30:45;;;;;;;12.43;7.32;;;12.30;81.20;;;;;;4996254;28;20486;-71
2022/07/08 04:33:10;;;;;;;18.50;9.02;;;12.40;81.00;;;;;;4989606;28;20089;-72
2022/07/08 04:35:36;;;;;;;17.83;7.80;;;12.50;80.70;;;;;;5007543;28;20372;-75
2022/07/08 04:38:02;;;;;;;13.27;7.40;;;12.50;80.80;;;;;;4997777;28;20125;-75
2022/07/08 04:40:28;;;;;;;16.80;7.45;;;12.50;80.80;;;;;;4998090;28;20138;-75
2022/07/08 04:42:54;;;;;;;15.30;8.35;;;12.60;80.70;;;;;;4988889;28;20057;-74
2022/07/08 04:45:21;;;;;;;13.50;7.70;;;12.70;80.50;;;;;;5004706;28;20069;-75
2022/07/08 04:47:47;;;;;;;17.85;7.95;;;12.80;80.20;;;;;;5001126;28;20490;-75
2022/07/08 04:50:13;;;;;;;16.40;8.85;;;12.90;79.90;;;;;;5002653;28;20271;-75
2022/07/08 04:52:38;;;;;;;16.23;8.45;;;12.90;80.10;;;;;;5001456;28;20030;-75
2022/07/08 04:55:05;;;;;;;15.63;8.13;;;13.00;80.00;;;;;;4993381;28;20068;-76
2022/07/08 04:57:33;;;;;;;17.20;9.50;;;13.00;79.90;;;;;;5003656;28;20120;-74
2022/07/08 04:59:59;;;;;;;16.27;9.27;;;13.10;79.90;;;;;;5008110;28;20046;-75
2022/07/08 05:02:26;;;;;;;13.73;8.25;;;13.10;79.40;;;;;;5000653;28;20026;-74
2022/07/08 05:04:52;;;;;;;16.52;9.30;;;13.20;79.80;;;;;;5001690;28;20038;-75
2022/07/08 05:07:18;;;;;;;23.38;10.27;;;13.20;79.70;;;;;;5008165;28;20033;-76
2022/07/08 05:09:43;;;;;;;18.80;9.77;;;13.30;79.50;;;;;;5011885;28;20104;-77
2022/07/08 05:12:10;;;;;;;18.88;10.20;;;13.30;79.80;;;;;;5003471;28;20105;-76
2022/07/08 05:14:35;;;;;;;25.58;10.90;;;13.30;79.90;;;;;;4994232;28;20038;-76
2022/07/08 05:17:01;;;;;;;17.42;9.52;;;13.50;79.80;;;;;;5005621;28;20111;-76
2022/07/08 05:19:27;;;;;;;20.35;9.80;;;14.30;79.10;;;;;;5001050;28;20040;-76
2022/07/08 05:21:53;;;;;;;15.10;8.02;;;16.00;74.20;;;;;;4992255;28;20047;-76
2022/07/08 05:24:18;;;;;;;15.15;7.32;;;17.80;69.00;;;;;;5000461;28;20121;-76
2022/07/08 05:26:44;;;;;;;17.77;8.73;;;19.40;63.00;;;;;;5004856;28;20049;-76
2022/07/08 05:29:10;;;;;;;17.52;7.30;;;20.20;57.90;;;;;;5011185;28;20398;-74
2022/07/08 05:31:35;;;;;;;17.08;7.07;;;21.00;56.20;;;;;;4999632;28;20069;-74
2022/07/08 05:34:01;;;;;;;21.85;7.50;;;21.90;53.00;;;;;;4996067;28;20046;-76
2022/07/08 05:36:27;;;;;;;17.00;6.95;;;21.70;53.10;;;;;;5008675;28;20065;-76
2022/07/08 05:38:52;;;;;;;18.75;7.53;;;22.40;52.00;;;;;;5011846;28;20041;-76
2022/07/08 05:41:18;;;;;;;18.52;7.38;;;22.60;50.70;;;;;;5004770;28;20041;-76
2022/07/08 05:43:44;;;;;;;15.63;6.63;;;23.00;48.60;;;;;;5011444;28;20184;-77
2022/07/08 05:46:09;;;;;;;16.50;7.70;;;23.30;49.50;;;;;;5009359;28;20503;-76
2022/07/08 05:48:35;;;;;;;16.45;7.18;;;23.80;47.50;;;;;;4996624;28;20045;-76
2022/07/08 05:51:01;;;;;;;15.00;6.43;;;24.10;47.60;;;;;;4998604;28;20054;-76
2022/07/08 05:53:26;;;;;;;21.95;7.85;;;24.50;46.90;;;;;;5009881;28;20071;-76
2022/07/08 05:55:52;;;;;;;17.55;7.35;;;24.30;45.70;;;;;;5003293;28;20092;-76
2022/07/08 05:58:18;;;;;;;23.02;7.35;;;24.00;47.30;;;;;;5005371;28;20091;-76
2022/07/08 06:00:44;;;;;;;19.40;7.03;;;23.60;47.90;;;;;;5010118;28;20121;-76
2022/07/08 06:03:09;;;;;;;20.67;8.77;;;22.60;50.30;;;;;;4992133;28;20394;-76
2022/07/08 06:05:35;;;;;;;18.25;8.45;;;21.30;52.90;;;;;;5006297;28;20038;-76
2022/07/08 06:08:01;;;;;;;16.20;8.10;;;20.30;56.10;;;;;;5005487;28;20039;-75
2022/07/08 06:10:26;;;;;;;17.80;8.90;;;19.30;60.20;;;;;;5003882;28;20428;-76
2022/07/08 06:12:53;;;;;;;26.13;10.15;;;18.90;61.60;;;;;;4998681;28;20084;-76
2022/07/08 06:15:19;;;;;;;25.42;10.88;;;18.50;63.00;;;;;;5010807;28;20046;-76
2022/07/08 06:17:45;;;;;;;19.05;10.63;;;18.10;65.10;;;;;;4997286;28;20461;-75
2022/07/08 06:20:13;;;;;;;22.17;10.13;;;17.90;67.20;;;;;;5007068;28;20034;-76
2022/07/08 06:22:39;;;;;;;21.63;9.77;;;17.90;66.80;;;;;;5010221;28;20117;-76
2022/07/08 06:25:05;;;;;;;22.10;10.40;;;18.00;66.20;;;;;;5011323;28;20173;-76
2022/07/08 06:27:31;;;;;;;20.17;10.60;;;18.00;66.50;;;;;;5000435;28;20035;-76
2022/07/08 06:29:57;;;;;;;18.25;10.02;;;18.00;67.00;;;;;;4997404;28;20057;-76
2022/07/08 06:32:22;;;;;;;20.50;9.77;;;18.20;67.30;;;;;;5001311;28;20037;-76
2022/07/08 06:34:48;;;;;;;16.52;9.43;;;18.30;66.60;;;;;;5004222;28;20066;-76
2022/07/08 06:37:14;;;;;;;13.80;7.53;;;18.40;66.50;;;;;;5002436;28;20101;-76
2022/07/08 06:39:39;;;;;;;15.85;8.32;;;18.50;65.70;;;;;;5010191;28;20041;-76
2022/07/08 06:42:05;;;;;;;19.38;10.07;;;18.60;65.20;;;;;;5009636;28;20513;-76
2022/07/08 06:44:31;;;;;;;20.40;9.75;;;18.60;66.00;;;;;;4994673;28;20044;-76
2022/07/08 06:46:57;;;;;;;19.35;9.15;;;19.00;65.10;;;;;;5003201;28;20045;-76
2022/07/08 06:49:22;;;;;;;13.13;6.60;;;19.00;65.10;;;;;;5009391;28;20034;-76
2022/07/08 06:51:48;;;;;;;18.65;7.10;;;19.10;65.20;;;;;;4996485;28;20474;-76
2022/07/08 06:56:58;;;;;;;23.80;8.80;;;19.20;64.20;;;;;;5005816;28;20118;-76
2022/07/08 06:59:24;;;;;;;15.40;4.97;;;19.30;65.20;;;;;;5007314;28;20117;-76
2022/07/08 07:01:49;;;;;;;18.27;5.90;;;19.30;63.80;;;;;;5006974;28;20099;-75
2022/07/08 07:04:15;;;;;;;21.17;8.20;;;19.50;64.30;;;;;;5005152;28;20042;-76
2022/07/08 07:06:41;;;;;;;20.23;8.27;;;19.60;64.00;;;;;;5005154;28;20402;-76
2022/07/08 07:09:06;;;;;;;20.85;9.30;;;19.50;64.00;;;;;;5009122;28;20092;-76
2022/07/08 07:11:32;;;;;;;17.45;8.77;;;19.50;64.30;;;;;;5000886;28;20100;-76
2022/07/08 07:13:58;;;;;;;16.05;7.45;;;19.60;64.50;;;;;;4998315;28;20431;-76
2022/07/08 07:16:23;;;;;;;19.15;7.18;;;19.60;65.20;;;;;;4993864;28;20450;-76
2022/07/08 07:18:49;;;;;;;19.58;7.35;;;19.60;65.00;;;;;;4999224;28;20065;-75
2022/07/08 07:21:15;;;;;;;16.83;7.30;;;19.70;63.50;;;;;;5002514;28;20056;-76
2022/07/08 07:23:40;;;;;;;16.45;7.95;;;19.70;64.40;;;;;;5010685;28;20477;-76
2022/07/08 07:26:06;;;;;;;17.05;6.10;;;19.80;64.50;;;;;;4995906;28;20042;-76
2022/07/08 07:28:32;;;;;;;15.40;5.95;;;20.00;63.60;;;;;;5009331;28;20034;-76
2022/07/08 07:30:58;;;;;;;12.43;5.45;;;20.00;63.80;;;;;;5007084;28;20502;-76
2022/07/08 07:33:23;;;;;;;12.25;5.32;;;19.90;64.30;;;;;;4999706;28;20459;-76
2022/07/08 07:35:49;;;;;;;14.77;5.78;;;20.10;64.40;;;;;;5003110;28;20040;-76
2022/07/08 07:38:14;;;;;;;14.45;5.90;;;19.90;64.20;;;;;;5000308;28;20137;-76
2022/07/08 07:40:40;;;;;;;14.65;5.80;;;20.00;64.30;;;;;;4990743;28;20064;-76
2022/07/08 07:43:06;;;;;;;11.85;6.25;;;20.10;64.80;;;;;;5007983;28;20034;-75
2022/07/08 07:45:31;;;;;;;14.05;6.05;;;20.00;64.60;;;;;;5010548;28;20449;-76
2022/07/08 07:47:57;;;;;;;14.52;6.75;;;20.30;64.20;;;;;;4995505;28;20062;-76
2022/07/08 07:50:23;;;;;;;17.83;5.90;;;20.60;62.60;;;;;;4990460;28;20081;-76
2022/07/08 07:52:49;;;;;;;12.85;5.68;;;20.60;62.30;;;;;;5002060;28;20141;-77
2022/07/08 07:55:15;;;;;;;12.52;6.47;;;20.70;63.10;;;;;;5009859;28;20482;-76
2022/07/08 07:57:45;;;;;;;12.38;6.07;;;20.80;62.70;;;;;;4999540;28;20084;-75
2022/07/08 08:00:12;;;;;;;15.88;6.10;;;21.10;62.60;;;;;;4991594;28;20054;-76
2022/07/08 08:02:39;;;;;;;14.35;5.93;;;21.10;61.50;;;;;;5000582;28;20474;-76
2022/07/08 08:05:05;;;;;;;14.90;6.45;;;21.20;61.40;;;;;;5009148;28;20096;-75
2022/07/08 08:07:31;;;;;;;18.33;7.40;;;21.20;61.40;;;;;;5008969;28;20030;-76
2022/07/08 08:09:56;;;;;;;11.77;5.90;;;21.30;60.50;;;;;;5008169;28;20034;-76
2022/07/08 08:12:22;;;;;;;11.60;5.35;;;21.30;60.30;;;;;;4999660;28;20030;-76
2022/07/08 08:14:47;;;;;;;12.80;5.55;;;21.30;60.50;;;;;;4994417;28;20438;-76
2022/07/08 08:17:13;;;;;;;11.93;5.20;;;21.30;59.60;;;;;;4997060;28;20445;-75
2022/07/08 08:19:39;;;;;;;13.07;5.63;;;21.60;60.90;;;;;;4999619;28;20537;-76
2022/07/08 08:22:05;;;;;;;13.48;5.40;;;21.60;58.10;;;;;;4989992;28;20113;-75
2022/07/08 08:24:30;;;;;;;12.25;5.30;;;21.50;58.30;;;;;;4994336;28;20161;-78
2022/07/08 08:26:56;;;;;;;11.88;5.60;;;21.20;58.50;;;;;;5009867;28;20497;-76
2022/07/08 08:29:22;;;;;;;13.55;5.28;;;21.30;59.40;;;;;;4998862;28;20133;-76
2022/07/08 08:31:48;;;;;;;11.10;4.40;;;21.60;59.10;;;;;;4998753;28;20058;-76
2022/07/08 08:34:13;;;;;;;9.15;3.58;;;21.80;58.20;;;;;;4989619;28;20046;-76
2022/07/08 08:36:39;;;;;;;10.85;4.20;;;21.80;56.00;;;;;;5002019;28;20524;-76
2022/07/08 08:39:05;;;;;;;12.10;4.07;;;21.90;56.00;;;;;;5006918;28;20038;-75
2022/07/08 08:41:33;;;;;;;9.18;3.47;;;22.10;55.00;;;;;;5005338;28;20412;-76
2022/07/08 08:43:59;;;;;;;9.15;2.83;;;22.20;54.40;;;;;;4993427;28;20485;-77
2022/07/08 08:46:25;;;;;;;7.10;2.67;;;22.50;54.40;;;;;;5001747;28;20594;-77
2022/07/08 08:48:56;;;;;;;8.93;2.88;;;22.10;50.80;;;;;;5012620;28;20394;-77
2022/07/08 08:51:22;;;;;;;10.23;2.78;;;22.30;52.50;;;;;;5004616;28;20379;-77
2022/07/08 08:53:48;;;;;;;7.68;3.08;;;22.40;52.10;;;;;;5011765;28;20037;-76
2022/07/08 08:56:17;;;;;;;8.93;3.20;;;22.60;52.50;;;;;;5013955;28;20042;-76
2022/07/08 08:58:47;;;;;;;8.48;3.08;;;23.00;52.40;;;;;;5020092;28;20041;-77
2022/07/08 09:01:18;;;;;;;10.30;3.50;;;23.00;50.10;;;;;;5000250;28;20133;-77
2022/07/08 09:03:44;;;;;;;9.60;2.72;;;22.90;50.70;;;;;;4997029;28;20053;-76
2022/07/08 09:06:10;;;;;;;8.85;3.15;;;22.90;49.20;;;;;;5012435;28;20553;-76
2022/07/08 09:08:36;;;;;;;9.95;3.72;;;23.00;49.20;;;;;;5009808;28;20113;-76
2022/07/08 09:11:02;;;;;;;11.88;3.67;;;22.90;49.80;;;;;;5006435;28;20545;-77
2022/07/08 09:13:28;;;;;;;13.18;3.65;;;23.00;50.90;;;;;;5001391;28;20096;-76
2022/07/08 09:15:57;;;;;;;10.18;3.20;;;23.10;51.00;;;;;;5013690;28;20057;-77
2022/07/08 09:18:27;;;;;;;7.35;3.17;;;23.40;49.20;;;;;;4995097;28;20453;-76
2022/07/08 09:20:55;;;;;;;9.85;3.03;;;23.60;48.50;;;;;;5006238;28;20038;-76
2022/07/08 09:23:29;;;;;;;8.50;3.10;;;23.80;49.30;;;;;;5010853;28;20042;-76
2022/07/08 09:26:03;;;;;;;9.00;2.58;;;24.00;47.50;;;;;;4998652;28;20068;-76
2022/07/08 09:28:36;;;;;;;7.95;3.05;;;24.00;47.90;;;;;;5001479;28;20501;-76
2022/07/08 09:31:09;;;;;;;8.68;3.47;;;23.80;48.30;;;;;;5011877;28;20062;-76
2022/07/08 09:33:36;;;;;;;8.02;2.70;;;23.50;48.40;;;;;;5008780;28;20026;-76
2022/07/08 09:36:03;;;;;;;9.73;3.63;;;23.50;50.20;;;;;;5010823;28;20058;-76
2022/07/08 09:38:31;;;;;;;10.50;3.67;;;23.50;48.90;;;;;;5009690;28;20038;-76
2022/07/08 09:40:58;;;;;;;8.43;2.90;;;23.50;49.70;;;;;;5002832;28;20471;-76
2022/07/08 09:43:25;;;;;;;9.07;2.92;;;23.80;49.00;;;;;;5006014;28;20041;-76
2022/07/08 09:45:51;;;;;;;8.35;2.50;;;24.10;48.80;;;;;;5013285;28;20435;-76
2022/07/08 09:48:17;;;;;;;9.15;3.22;;;24.10;49.10;;;;;;4992269;28;20065;-76
2022/07/08 09:50:47;;;;;;;7.85;2.55;;;24.10;47.30;;;;;;5004963;28;20391;-77
2022/07/08 09:53:22;;;;;;;9.88;3.17;;;24.10;47.90;;;;;;4999469;28;20544;-76
2022/07/08 09:55:51;;;;;;;11.27;3.17;;;24.00;47.40;;;;;;5009138;28;20041;-75
2022/07/08 09:58:27;;;;;;;8.93;3.13;;;24.10;48.20;;;;;;5001299;28;20508;-76
2022/07/08 10:00:55;;;;;;;9.07;2.78;;;24.10;48.30;;;;;;5009367;28;20029;-78
2022/07/08 10:03:22;;;;;;;8.15;2.60;;;24.60;47.50;;;;;;5009666;28;20069;-75
2022/07/08 10:05:48;;;;;;;7.85;2.20;;;25.00;46.50;;;;;;5012792;28;20046;-76
2022/07/08 10:08:15;;;;;;;8.57;2.10;;;25.10;47.20;;;;;;5004883;28;20092;-75
2022/07/08 10:10:43;;;;;;;8.82;2.47;;;25.30;46.80;;;;;;5004247;28;20038;-76
2022/07/08 10:13:09;;;;;;;9.65;2.50;;;25.30;46.60;;;;;;5010439;28;20049;-76
2022/07/08 10:15:37;;;;;;;8.25;2.45;;;25.30;46.60;;;;;;5011344;28;20049;-76
2022/07/08 10:18:08;;;;;;;8.93;2.67;;;25.00;47.90;;;;;;5008847;28;20442;-76
2022/07/08 10:20:37;;;;;;;14.85;3.35;;;25.10;46.20;;;;;;5002394;28;20038;-75
2022/07/08 10:23:08;;;;;;;9.68;2.72;;;24.80;47.90;;;;;;4994892;28;20057;-76
2022/07/08 10:25:35;;;;;;;9.18;2.53;;;25.20;46.10;;;;;;5005650;28;20049;-75
2022/07/08 10:28:08;;;;;;;7.22;2.28;;;25.10;46.20;;;;;;4995875;28;20043;-75
2022/07/08 10:30:51;;;;;;;9.02;2.80;;;25.10;46.60;;;;;;5003618;28;20057;-76
2022/07/08 10:33:25;;;;;;;7.15;2.53;;;25.10;46.70;;;;;;5008106;28;20031;-76
2022/07/08 10:36:02;;;;;;;7.30;2.20;;;25.50;46.10;;;;;;5006034;28;20042;-77
2022/07/08 10:38:40;;;;;;;7.47;2.10;;;25.80;46.10;;;;;;5022605;28;20041;-76
2022/07/08 10:41:10;;;;;;;6.30;2.00;;;25.80;45.70;;;;;;5010805;28;20410;-76
2022/07/08 10:43:38;;;;;;;8.48;2.83;;;26.10;44.70;;;;;;4996159;28;20057;-76
2022/07/08 10:46:12;;;;;;;6.70;2.28;;;25.90;43.20;;;;;;4994463;28;20035;-77
2022/07/08 10:48:41;;;;;;;8.63;2.40;;;25.70;45.10;;;;;;5002928;28;20050;-76
2022/07/08 10:51:19;;;;;;;6.05;2.28;;;25.70;44.50;;;;;;4995543;28;20153;-76
2022/07/08 10:53:53;;;;;;;8.82;2.92;;;25.40;44.70;;;;;;4998558;28;20096;-76
2022/07/08 10:56:48;;;;;;;5.20;2.17;;;25.70;44.40;;;;;;5003204;28;20126;-76
2022/07/08 10:59:20;;;;;;;7.47;2.50;;;26.10;45.10;;;;;;5007446;28;20042;-76
2022/07/08 11:02:06;;;;;;;6.88;2.10;;;26.30;43.30;;;;;;4995758;28;20042;-77
2022/07/08 11:04:44;;;;;;;6.85;2.30;;;26.00;44.40;;;;;;4999127;28;20438;-76
2022/07/08 11:07:28;;;;;;;6.35;2.25;;;26.20;43.50;;;;;;5006237;28;20359;-76
2022/07/08 11:09:54;;;;;;;8.55;2.40;;;26.40;42.60;;;;;;5002899;28;20394;-76
2022/07/08 11:12:25;;;;;;;10.52;2.50;;;26.30;43.70;;;;;;4994630;28;20038;-76
2022/07/08 11:14:53;;;;;;;8.40;2.42;;;26.30;43.20;;;;;;5010971;28;20092;-76
2022/07/08 11:17:20;;;;;;;9.30;2.33;;;26.50;43.70;;;;;;5008592;28;20104;-76
2022/07/08 11:19:48;;;;;;;8.48;2.85;;;26.70;43.10;;;;;;4993902;28;20479;-77
2022/07/08 11:22:14;;;;;;;6.15;2.00;;;26.30;42.50;;;;;;5008098;28;20030;-76
2022/07/08 11:24:41;;;;;;;8.00;2.50;;;26.20;44.50;;;;;;5007921;28;20081;-76
2022/07/08 11:27:07;;;;;;;6.22;2.25;;;26.30;42.90;;;;;;4995518;28;20045;-76
2022/07/08 11:29:34;;;;;;;6.78;2.50;;;26.30;44.10;;;;;;5006298;28;20389;-76
2022/07/08 11:32:02;;;;;;;6.93;2.65;;;26.40;44.50;;;;;;5003550;28;20109;-76
2022/07/08 11:34:28;;;;;;;7.03;2.28;;;26.40;43.30;;;;;;5010764;28;20037;-76
2022/07/08 11:36:55;;;;;;;6.50;2.50;;;26.30;43.00;;;;;;5009208;28;20064;-75
2022/07/08 11:39:21;;;;;;;7.90;2.65;;;26.50;44.30;;;;;;5003347;28;20038;-76
2022/07/08 11:41:47;;;;;;;7.85;2.45;;;26.50;42.40;;;;;;4997673;28;20092;-75
2022/07/08 11:44:13;;;;;;;5.93;2.42;;;26.10;43.50;;;;;;4998635;28;20054;-76
2022/07/08 11:47:05;;;;;;;7.00;2.25;;;26.40;43.60;;;;;;5001520;28;20482;-76
2022/07/08 11:49:32;;;;;;;7.68;3.15;;;26.70;43.90;;;;;;5003182;28;20493;-76
2022/07/08 11:51:59;;;;;;;5.03;2.40;;;26.60;42.30;;;;;;4994020;28;20093;-75
2022/07/08 11:54:29;;;;;;;8.32;2.40;;;26.20;43.50;;;;;;5001521;28;20030;-76
2022/07/08 11:56:56;;;;;;;8.38;2.10;;;26.50;44.00;;;;;;5008606;28;20026;-76
2022/07/08 11:59:23;;;;;;;6.88;2.38;;;27.00;44.50;;;;;;5005801;28;20057;-76
2022/07/08 12:01:53;;;;;;;7.53;2.30;;;26.50;42.60;;;;;;5005048;28;20080;-75
2022/07/08 12:04:20;;;;;;;6.95;2.22;;;26.60;43.70;;;;;;4997516;28;20109;-75
2022/07/08 12:06:50;;;;;;;7.15;2.10;;;26.70;44.30;;;;;;5004711;28;20061;-75
2022/07/08 12:09:18;;;;;;;6.75;2.35;;;27.10;44.50;;;;;;5005239;28;20065;-75
2022/07/08 12:11:46;;;;;;;7.35;2.30;;;27.00;44.50;;;;;;4992986;28;20045;-75
2022/07/08 12:14:12;;;;;;;7.68;2.60;;;27.30;43.50;;;;;;4997040;28;20038;-78
2022/07/08 12:16:45;;;;;;;6.93;2.40;;;27.30;43.30;;;;;;5002389;28;20410;-75
2022/07/08 12:19:36;;;;;;;9.23;2.33;;;27.60;43.60;;;;;;4997721;28;20038;-76
2022/07/08 12:22:07;;;;;;;6.40;1.98;;;27.50;42.80;;;;;;4990155;28;20038;-76
2022/07/08 12:24:39;;;;;;;5.60;2.28;;;27.80;43.30;;;;;;4999939;28;20040;-75
2022/07/08 12:27:07;;;;;;;9.80;2.33;;;28.00;42.00;;;;;;5002692;28;20042;-75
2022/07/08 12:29:38;;;;;;;7.68;2.08;;;28.30;41.80;;;;;;5003894;28;20413;-75
2022/07/08 12:32:08;;;;;;;8.25;2.03;;;28.50;40.30;;;;;;5013477;28;20124;-76
2022/07/08 12:34:34;;;;;;;6.95;2.50;;;28.60;40.40;;;;;;5004012;28;20040;-75
2022/07/08 12:37:15;;;;;;;5.88;1.90;;;28.30;40.30;;;;;;5006262;28;20505;-75
2022/07/08 12:39:41;;;;;;;6.85;2.13;;;28.10;40.80;;;;;;5003741;28;20034;-75
2022/07/08 12:42:07;;;;;;;5.03;1.92;;;28.30;41.60;;;;;;5005682;28;20088;-75
2022/07/08 12:44:40;;;;;;;8.35;2.38;;;28.20;41.50;;;;;;5007707;28;20040;-75
2022/07/08 12:47:11;;;;;;;8.30;2.50;;;28.50;42.00;;;;;;5014198;28;20065;-75